Time;durP1;ratioP1;P1;durP2;ratioP2;P2;SDS_P1;SDS_P2;PMS_P1;PMS_P2;Temp;Humidity;BMP_temperature;BMP_pressure;BME280_temperature;BME280_humidity;BME280_pressure;Samples;Min_cycle;Max_cycle;Signal;HPM_P1;HPM_P2
2022/11/20 00:00:54;;;;;;;15.00;8.25;;;8.50;99.90;;;;;;5092355;28;20430;-80
2022/11/20 00:03:19;;;;;;;12.18;7.32;;;8.50;99.90;;;;;;5091736;28;20035;-80
2022/11/20 00:05:45;;;;;;;9.77;5.65;;;8.30;99.90;;;;;;5091809;28;20016;-80
2022/11/20 00:08:11;;;;;;;19.15;15.45;;;8.20;99.90;;;;;;5092007;28;20036;-80
2022/11/20 00:10:41;;;;;;;28.38;14.68;;;8.10;99.90;;;;;;5092025;28;20035;-80
2022/11/20 00:13:07;;;;;;;34.33;18.52;;;8.10;99.90;;;;;;5091847;28;20024;-80
2022/11/20 00:15:33;;;;;;;18.70;11.98;;;8.00;99.90;;;;;;5091846;28;20492;-80
2022/11/20 00:17:58;;;;;;;12.30;6.78;;;8.10;99.90;;;;;;5081337;28;20036;-80
2022/11/20 00:20:24;;;;;;;9.13;5.00;;;8.30;99.90;;;;;;5071552;28;20020;-80
2022/11/20 00:22:50;;;;;;;25.10;12.00;;;8.20;99.90;;;;;;5071535;28;20496;-80
2022/11/20 00:25:16;;;;;;;58.03;27.88;;;8.20;99.90;;;;;;5071527;28;20024;-80
2022/11/20 00:27:42;;;;;;;15.48;7.82;;;8.20;99.90;;;;;;5071307;28;20028;-80
2022/11/20 00:30:08;;;;;;;7.97;5.35;;;8.20;99.90;;;;;;5071470;28;20025;-80
2022/11/20 00:32:34;;;;;;;11.18;6.57;;;8.30;99.90;;;;;;5071283;28;20504;-80
2022/11/20 00:35:00;;;;;;;7.65;4.78;;;8.20;99.90;;;;;;5071776;28;20032;-80
2022/11/20 00:37:25;;;;;;;17.92;9.93;;;8.70;99.90;;;;;;5091682;28;20036;-80
2022/11/20 00:39:51;;;;;;;8.77;4.97;;;8.20;99.90;;;;;;5091224;28;20384;-80
2022/11/20 00:42:17;;;;;;;10.23;6.53;;;8.50;99.90;;;;;;5095270;28;20035;-80
2022/11/20 00:44:42;;;;;;;6.93;4.97;;;8.20;99.90;;;;;;5095312;28;20391;-80
2022/11/20 00:47:08;;;;;;;8.20;5.18;;;8.20;99.90;;;;;;5095130;28;20027;-80
2022/11/20 00:49:33;;;;;;;10.13;6.25;;;8.00;99.90;;;;;;5095252;28;20024;-80
2022/11/20 00:51:59;;;;;;;8.13;5.60;;;8.00;99.90;;;;;;5094831;28;20537;-80
2022/11/20 00:54:25;;;;;;;9.73;6.15;;;8.10;99.90;;;;;;5094611;28;20067;-80
2022/11/20 00:56:53;;;;;;;8.88;5.32;;;8.00;99.90;;;;;;5095188;28;20107;-80
2022/11/20 00:59:18;;;;;;;8.02;4.97;;;8.00;99.90;;;;;;5094815;28;20430;-80
2022/11/20 01:01:44;;;;;;;18.05;10.13;;;8.00;99.90;;;;;;5094720;28;20023;-80
2022/11/20 01:04:10;;;;;;;12.65;9.13;;;8.20;99.90;;;;;;5094963;28;20077;-80
2022/11/20 01:06:37;;;;;;;13.77;8.27;;;8.00;99.90;;;;;;5094697;28;20025;-80
2022/11/20 01:09:09;;;;;;;18.08;8.88;;;8.00;99.90;;;;;;5094604;28;20054;-80
2022/11/20 01:11:38;;;;;;;7.95;5.50;;;7.90;99.90;;;;;;5094305;28;20020;-80
2022/11/20 01:14:06;;;;;;;11.70;6.63;;;7.80;99.90;;;;;;5094526;28;20483;-80
2022/11/20 01:16:37;;;;;;;17.45;9.57;;;7.50;99.90;;;;;;5094719;28;20400;-80
2022/11/20 01:19:06;;;;;;;19.95;10.50;;;7.50;99.90;;;;;;5094196;28;20110;-80
2022/11/20 01:21:36;;;;;;;7.75;5.65;;;7.60;99.90;;;;;;5094478;28;20050;-80
2022/11/20 01:24:04;;;;;;;5.90;5.05;;;8.20;99.90;;;;;;5094019;28;20024;-80
2022/11/20 01:26:32;;;;;;;19.42;10.80;;;7.60;99.90;;;;;;5094405;28;20154;-80
2022/11/20 01:28:58;;;;;;;14.95;8.13;;;7.60;99.90;;;;;;5094077;28;20519;-79
2022/11/20 01:31:26;;;;;;;11.43;6.30;;;7.70;99.90;;;;;;5076231;28;20387;-80
2022/11/20 01:33:54;;;;;;;8.38;5.78;;;7.70;99.90;;;;;;5094357;28;20024;-80
2022/11/20 01:36:22;;;;;;;23.27;11.68;;;8.20;99.90;;;;;;5094012;28;20722;-80
2022/11/20 01:38:47;;;;;;;27.88;14.90;;;8.00;99.90;;;;;;5093938;28;20020;-80
2022/11/20 01:43:20;;;;;;;57.08;28.83;;;8.10;99.90;;;;;;5093989;28;20560;-80
2022/11/20 01:44:01;;;;;;;68.50;34.72;;;8.20;99.90;;;;;;5094025;28;20035;-80
2022/11/20 01:46:27;;;;;;;121.13;57.63;;;8.30;99.90;;;;;;5093902;28;20047;-80
2022/11/20 01:49:02;;;;;;;24.70;14.23;;;8.30;99.90;;;;;;5094071;28;20085;-80
2022/11/20 01:51:38;;;;;;;10.18;6.53;;;8.20;99.90;;;;;;5093761;28;20016;-80
2022/11/20 01:54:09;;;;;;;7.50;6.30;;;8.20;99.90;;;;;;5092947;28;20032;-80
2022/11/20 01:56:38;;;;;;;23.55;12.93;;;8.00;99.90;;;;;;5093826;28;20017;-80
2022/11/20 01:59:07;;;;;;;16.13;9.30;;;8.00;99.90;;;;;;5093704;28;20024;-80
2022/11/20 02:01:33;;;;;;;15.25;10.18;;;8.00;99.90;;;;;;5094012;28;20013;-80
2022/11/20 02:04:00;;;;;;;11.30;7.22;;;8.10;99.90;;;;;;5093584;28;20118;-79
2022/11/20 02:06:31;;;;;;;18.35;10.70;;;8.00;99.90;;;;;;5093686;28;20502;-80
2022/11/20 02:08:57;;;;;;;7.07;6.03;;;7.90;99.90;;;;;;5093178;28;20135;-80
2022/11/20 02:11:23;;;;;;;10.02;7.25;;;7.90;99.90;;;;;;5093519;28;20115;-80
2022/11/20 02:13:49;;;;;;;9.38;6.43;;;7.90;99.90;;;;;;5093641;28;20031;-80
2022/11/20 02:16:20;;;;;;;8.85;5.85;;;7.90;99.90;;;;;;5093415;28;20380;-80
2022/11/20 02:18:47;;;;;;;9.10;7.13;;;7.90;99.90;;;;;;5110622;28;20031;-80
2022/11/20 02:21:42;;;;;;;15.80;9.90;;;8.20;99.90;;;;;;5113563;28;20020;-80
2022/11/20 02:24:14;;;;;;;8.73;6.40;;;7.70;99.90;;;;;;5113853;28;20027;-80
2022/11/20 02:26:43;;;;;;;10.75;6.85;;;7.70;99.90;;;;;;5113426;28;20125;-80
2022/11/20 02:29:08;;;;;;;16.52;8.95;;;7.80;99.90;;;;;;5113242;28;20368;-80
2022/11/20 02:31:38;;;;;;;18.55;9.90;;;7.80;99.90;;;;;;5113908;28;20057;-80
2022/11/20 02:34:03;;;;;;;11.00;6.30;;;7.90;99.90;;;;;;5093994;28;20089;-80
2022/11/20 02:36:32;;;;;;;9.30;6.72;;;8.50;99.90;;;;;;5092256;28;20039;-80
2022/11/20 02:38:57;;;;;;;10.15;6.78;;;8.00;99.90;;;;;;5093213;28;20036;-80
2022/11/20 02:41:37;;;;;;;8.93;6.25;;;8.00;99.90;;;;;;5092987;28;20376;-80
2022/11/20 02:44:04;;;;;;;10.60;6.45;;;8.00;99.90;;;;;;5092908;28;20031;-80
2022/11/20 02:46:31;;;;;;;8.60;5.80;;;8.00;99.90;;;;;;5093062;28;20036;-80
2022/11/20 02:48:56;;;;;;;9.20;6.30;;;8.30;99.90;;;;;;5092794;28;20119;-80
2022/11/20 02:51:23;;;;;;;10.57;5.85;;;8.40;99.90;;;;;;5092736;28;20108;-80
2022/11/20 02:53:48;;;;;;;10.45;6.10;;;8.00;99.90;;;;;;5092585;28;20024;-80
2022/11/20 02:56:14;;;;;;;6.35;5.75;;;8.00;99.90;;;;;;5092803;28;20511;-80
2022/11/20 02:58:39;;;;;;;9.60;6.20;;;8.00;99.90;;;;;;5092557;28;20081;-80
2022/11/20 03:01:05;;;;;;;11.10;6.70;;;8.00;99.90;;;;;;5092501;28;20412;-80
2022/11/20 03:03:30;;;;;;;9.85;6.32;;;8.00;99.90;;;;;;5092310;28;20036;-80
2022/11/20 03:05:59;;;;;;;9.38;6.07;;;8.00;99.90;;;;;;5092797;28;20024;-80
2022/11/20 03:08:25;;;;;;;9.00;5.63;;;8.00;99.90;;;;;;5092336;28;20468;-80
2022/11/20 03:10:51;;;;;;;12.57;7.18;;;8.00;99.90;;;;;;5092627;28;20503;-80
2022/11/20 03:13:17;;;;;;;8.40;6.20;;;8.20;99.90;;;;;;5092436;28;20028;-80
2022/11/20 03:15:43;;;;;;;11.30;6.30;;;8.00;99.90;;;;;;5092616;28;20020;-80
2022/11/20 03:18:08;;;;;;;8.20;5.90;;;7.90;99.90;;;;;;5104116;28;20514;-79
2022/11/20 03:20:34;;;;;;;17.60;9.65;;;8.00;99.90;;;;;;5112631;28;20040;-80
2022/11/20 03:23:00;;;;;;;8.07;6.43;;;7.90;99.90;;;;;;5112506;28;20106;-80
2022/11/20 03:25:26;;;;;;;19.15;8.32;;;7.80;99.90;;;;;;5112585;28;20024;-80
2022/11/20 03:27:51;;;;;;;14.18;9.15;;;7.80;99.90;;;;;;5112807;28;20035;-80
2022/11/20 03:30:17;;;;;;;12.38;7.03;;;7.80;99.90;;;;;;5112697;28;20027;-80
2022/11/20 03:32:43;;;;;;;11.35;6.90;;;7.70;99.90;;;;;;5104599;28;20039;-81
2022/11/20 03:35:09;;;;;;;10.52;6.80;;;7.60;99.90;;;;;;5091991;28;20052;-80
2022/11/20 03:37:35;;;;;;;7.43;6.07;;;7.70;99.90;;;;;;5092308;28;20024;-79
2022/11/20 03:40:00;;;;;;;15.07;9.52;;;7.70;99.90;;;;;;5092205;28;20392;-80
2022/11/20 03:42:44;;;;;;;12.23;6.63;;;7.70;99.90;;;;;;5092002;28;20206;-80
2022/11/20 03:45:10;;;;;;;10.57;7.15;;;7.70;99.90;;;;;;5092194;28;20024;-80
2022/11/20 03:47:36;;;;;;;10.18;7.30;;;7.70;99.90;;;;;;5092368;28;20028;-80
2022/11/20 03:50:02;;;;;;;11.43;7.53;;;7.50;99.90;;;;;;5092002;28;20158;-79
2022/11/20 03:52:28;;;;;;;16.50;9.65;;;7.90;99.90;;;;;;5092130;28;20103;-80
2022/11/20 03:54:53;;;;;;;33.63;17.17;;;7.50;99.90;;;;;;5092069;28;20099;-80
2022/11/20 03:57:19;;;;;;;20.33;13.05;;;7.60;99.90;;;;;;5092284;28;20491;-80
2022/11/20 03:59:44;;;;;;;12.77;7.78;;;7.60;99.90;;;;;;5092119;28;20028;-80
2022/11/20 04:02:10;;;;;;;12.10;8.65;;;7.60;99.90;;;;;;5091801;28;20492;-80
2022/11/20 04:04:35;;;;;;;16.75;10.65;;;7.60;99.90;;;;;;5091311;28;20116;-80
2022/11/20 04:07:02;;;;;;;21.08;11.02;;;7.50;99.90;;;;;;5092031;28;20028;-80
2022/11/20 04:09:27;;;;;;;32.13;17.40;;;7.50;99.90;;;;;;5092038;28;20064;-80
2022/11/20 04:11:53;;;;;;;14.05;8.32;;;7.90;99.90;;;;;;5091689;28;20491;-80
2022/11/20 04:14:19;;;;;;;11.18;7.43;;;7.50;99.90;;;;;;5091991;28;20109;-80
2022/11/20 04:16:44;;;;;;;13.80;8.77;;;7.50;99.90;;;;;;5094710;28;20025;-80
2022/11/20 04:19:13;;;;;;;13.00;7.80;;;7.60;99.90;;;;;;5095225;28;20063;-80
2022/11/20 04:21:38;;;;;;;11.20;7.72;;;7.50;99.90;;;;;;5095711;28;20155;-80
2022/11/20 04:24:04;;;;;;;10.63;7.45;;;7.50;99.90;;;;;;5095684;28;20028;-80
2022/11/20 04:26:31;;;;;;;12.15;7.55;;;7.60;99.90;;;;;;5095338;28;20034;-80
2022/11/20 04:28:57;;;;;;;10.65;7.80;;;7.90;99.90;;;;;;5095374;28;20085;-80
2022/11/20 04:31:26;;;;;;;11.93;7.53;;;7.60;99.90;;;;;;5095534;28;20031;-80
2022/11/20 04:33:52;;;;;;;19.75;11.00;;;7.60;99.90;;;;;;5094886;28;20024;-80
2022/11/20 04:36:24;;;;;;;14.57;8.32;;;7.60;99.90;;;;;;5095475;28;20062;-80
2022/11/20 04:38:58;;;;;;;11.18;7.93;;;7.60;99.90;;;;;;5095240;28;20020;-80
2022/11/20 04:41:29;;;;;;;12.60;8.20;;;7.50;99.90;;;;;;5093780;28;20553;-80
2022/11/20 04:44:02;;;;;;;13.73;9.07;;;7.60;99.90;;;;;;5095056;28;20031;-80
2022/11/20 04:46:39;;;;;;;12.98;9.07;;;7.50;99.90;;;;;;5094860;28;20028;-80
2022/11/20 04:49:06;;;;;;;10.50;7.63;;;7.90;99.90;;;;;;5095150;28;20032;-80
2022/11/20 04:51:32;;;;;;;12.30;7.70;;;7.40;99.90;;;;;;5095393;28;20020;-80
2022/11/20 04:53:58;;;;;;;11.63;7.45;;;7.50;99.90;;;;;;5095040;28;20731;-80
2022/11/20 04:56:24;;;;;;;20.80;7.72;;;7.40;99.90;;;;;;5094690;28;20028;-80
2022/11/20 04:58:49;;;;;;;13.27;7.38;;;7.40;99.90;;;;;;5094979;28;20519;-80
2022/11/20 05:01:19;;;;;;;9.25;7.38;;;7.50;99.90;;;;;;5095011;28;20106;-80
2022/11/20 05:03:45;;;;;;;8.85;7.20;;;7.40;99.90;;;;;;5094774;28;20024;-80
2022/11/20 05:06:13;;;;;;;11.15;7.45;;;7.50;99.90;;;;;;5094925;28;20024;-79
2022/11/20 05:08:39;;;;;;;12.63;8.18;;;7.40;99.90;;;;;;5094772;28;20519;-80
2022/11/20 05:11:13;;;;;;;9.48;7.13;;;7.40;99.90;;;;;;5094746;28;20035;-80
2022/11/20 05:13:39;;;;;;;11.32;7.47;;;7.40;99.90;;;;;;5094617;28;20029;-80
2022/11/20 05:16:08;;;;;;;12.38;7.72;;;7.40;99.90;;;;;;5094322;28;20020;-80
2022/11/20 05:18:34;;;;;;;10.73;8.32;;;7.30;99.90;;;;;;5109715;28;20031;-80
2022/11/20 05:21:00;;;;;;;12.38;7.55;;;7.30;99.90;;;;;;5114714;28;20081;-80
2022/11/20 05:23:27;;;;;;;10.90;7.47;;;7.20;99.90;;;;;;5114871;28;20107;-80
2022/11/20 05:25:54;;;;;;;9.98;7.00;;;7.20;99.90;;;;;;5115080;28;20034;-80
2022/11/20 05:28:20;;;;;;;8.18;6.95;;;7.50;99.90;;;;;;5114398;28;20067;-80
2022/11/20 05:30:46;;;;;;;10.73;7.00;;;7.40;99.90;;;;;;5114124;28;20020;-80
2022/11/20 05:33:12;;;;;;;9.48;7.07;;;7.20;99.90;;;;;;5102548;28;20096;-79
2022/11/20 05:35:37;;;;;;;10.57;7.00;;;7.20;99.90;;;;;;5094428;28;20040;-80
2022/11/20 05:38:03;;;;;;;11.88;6.75;;;7.10;99.90;;;;;;5093781;28;20388;-80
2022/11/20 05:40:29;;;;;;;10.18;6.97;;;7.20;99.90;;;;;;5093963;28;20021;-80
2022/11/20 05:42:54;;;;;;;10.10;7.22;;;7.10;99.90;;;;;;5094147;28;20078;-80
2022/11/20 05:45:20;;;;;;;9.88;7.45;;;7.50;99.90;;;;;;5093636;28;20020;-80
2022/11/20 05:47:45;;;;;;;9.50;7.32;;;7.10;99.90;;;;;;5093820;28;20024;-80
2022/11/20 05:50:11;;;;;;;9.80;6.60;;;7.20;99.90;;;;;;5093719;28;20020;-80
2022/11/20 05:52:37;;;;;;;9.23;6.85;;;7.20;99.90;;;;;;5093634;28;20580;-80
2022/11/20 05:55:03;;;;;;;9.07;6.70;;;7.20;99.90;;;;;;5094019;28;20024;-80
2022/11/20 05:57:28;;;;;;;8.48;6.70;;;7.30;99.90;;;;;;5093861;28;20039;-80
2022/11/20 05:59:54;;;;;;;12.80;6.82;;;7.40;99.90;;;;;;5093436;28;20017;-80
2022/11/20 06:02:19;;;;;;;8.90;6.53;;;7.40;99.90;;;;;;5093624;28;20061;-80
2022/11/20 06:04:45;;;;;;;9.48;6.25;;;7.80;99.90;;;;;;5093814;28;20020;-80
2022/11/20 06:07:10;;;;;;;10.98;6.50;;;7.40;99.90;;;;;;5093496;28;20115;-80
2022/11/20 06:09:36;;;;;;;9.25;6.95;;;8.00;99.90;;;;;;5093410;28;20036;-80
2022/11/20 06:12:02;;;;;;;9.15;7.43;;;7.50;99.90;;;;;;5093423;28;20039;-80
2022/11/20 06:14:27;;;;;;;9.75;6.97;;;7.50;99.90;;;;;;5093375;28;20032;-80
2022/11/20 06:16:53;;;;;;;10.93;6.63;;;7.50;99.90;;;;;;5093479;28;20032;-80
2022/11/20 06:19:18;;;;;;;10.15;7.15;;;7.40;99.90;;;;;;5093208;28;20032;-80
2022/11/20 06:21:44;;;;;;;13.43;7.07;;;7.40;99.90;;;;;;5093445;28;20427;-80
2022/11/20 06:24:10;;;;;;;9.48;6.90;;;7.40;99.90;;;;;;5093307;28;20055;-80
2022/11/20 06:26:36;;;;;;;9.45;7.28;;;7.40;99.90;;;;;;5093272;28;20032;-79
2022/11/20 06:29:01;;;;;;;9.32;7.57;;;7.40;99.90;;;;;;5092700;28;20039;-80
2022/11/20 06:31:28;;;;;;;10.57;6.80;;;7.90;99.90;;;;;;5093075;28;20016;-80
2022/11/20 06:33:54;;;;;;;11.15;7.32;;;7.70;99.90;;;;;;5092974;28;20118;-80
2022/11/20 06:36:22;;;;;;;9.63;6.65;;;7.40;99.90;;;;;;5092881;28;20547;-80
2022/11/20 06:38:48;;;;;;;9.27;7.25;;;7.40;99.90;;;;;;5092712;28;20028;-80
2022/11/20 06:41:17;;;;;;;9.63;6.88;;;7.40;99.90;;;;;;5092698;28;20027;-80
2022/11/20 06:43:43;;;;;;;10.98;7.22;;;7.40;99.90;;;;;;5093092;28;20551;-80
2022/11/20 06:46:13;;;;;;;9.70;7.22;;;7.40;99.90;;;;;;5092851;28;20059;-80
2022/11/20 06:48:39;;;;;;;9.65;7.18;;;7.40;99.90;;;;;;5093012;28;20032;-80
2022/11/20 06:51:07;;;;;;;10.45;7.60;;;7.40;99.90;;;;;;5092708;28;20016;-80
2022/11/20 06:53:32;;;;;;;12.02;7.57;;;7.40;99.90;;;;;;5092837;28;20032;-80
2022/11/20 06:55:59;;;;;;;11.93;8.55;;;7.50;99.90;;;;;;5092617;28;20028;-79
2022/11/20 06:58:27;;;;;;;9.80;7.78;;;7.50;99.90;;;;;;5092775;28;20028;-80
2022/11/20 07:00:57;;;;;;;12.30;7.18;;;7.50;99.90;;;;;;5092753;28;20539;-80
2022/11/20 07:03:23;;;;;;;10.05;7.75;;;7.40;99.90;;;;;;5092617;28;20032;-79
2022/11/20 07:05:48;;;;;;;9.63;7.40;;;7.80;99.90;;;;;;5092489;28;20027;-80
2022/11/20 07:08:14;;;;;;;12.00;7.30;;;7.50;99.90;;;;;;5092529;28;20036;-80
2022/11/20 07:10:39;;;;;;;10.90;7.72;;;7.70;99.90;;;;;;5092535;28;20523;-80
2022/11/20 07:13:06;;;;;;;10.50;8.02;;;7.50;99.90;;;;;;5092274;28;20032;-80
2022/11/20 07:15:32;;;;;;;8.95;7.10;;;7.60;99.90;;;;;;5092846;28;20024;-80
2022/11/20 07:18:01;;;;;;;12.07;7.47;;;7.50;99.90;;;;;;5102417;28;20027;-80
2022/11/20 07:20:27;;;;;;;10.85;8.27;;;7.60;99.90;;;;;;5112559;28;20047;-79
2022/11/20 07:22:56;;;;;;;13.02;7.57;;;7.60;99.90;;;;;;5113384;28;20054;-80
2022/11/20 07:25:23;;;;;;;11.25;8.07;;;7.50;99.90;;;;;;5112792;28;20031;-80
2022/11/20 07:27:48;;;;;;;12.13;7.97;;;7.60;99.90;;;;;;5112658;28;20091;-80
2022/11/20 07:30:15;;;;;;;11.82;8.13;;;7.40;99.90;;;;;;5112677;28;20036;-80
2022/11/20 07:32:41;;;;;;;10.63;9.10;;;7.40;99.90;;;;;;5104949;28;20032;-80
2022/11/20 07:35:07;;;;;;;12.82;9.82;;;7.30;99.90;;;;;;5091564;28;20043;-80
2022/11/20 07:37:35;;;;;;;12.82;9.10;;;7.30;99.90;;;;;;5092932;28;20024;-80
2022/11/20 07:40:02;;;;;;;13.32;10.00;;;7.40;99.90;;;;;;5092509;28;20035;-80
2022/11/20 07:42:27;;;;;;;15.63;10.50;;;7.50;99.90;;;;;;5091719;28;20024;-80
2022/11/20 07:44:53;;;;;;;20.40;12.27;;;7.50;99.90;;;;;;5092308;28;20433;-80
2022/11/20 07:47:18;;;;;;;19.02;13.02;;;7.50;99.90;;;;;;5092377;28;20024;-80
2022/11/20 07:49:44;;;;;;;20.60;15.13;;;7.50;99.90;;;;;;5084855;28;20039;-80
2022/11/20 07:52:09;;;;;;;15.38;11.38;;;7.40;99.90;;;;;;5075560;28;20027;-82
2022/11/20 07:54:35;;;;;;;16.02;11.10;;;7.40;99.90;;;;;;5075545;28;20082;-81
2022/11/20 07:57:00;;;;;;;15.30;10.60;;;7.80;99.90;;;;;;5075362;28;20031;-82
2022/11/20 07:59:26;;;;;;;13.30;10.70;;;7.60;99.90;;;;;;5083810;28;20399;-82
2022/11/20 08:01:52;;;;;;;12.90;10.10;;;8.00;99.90;;;;;;5096361;28;20081;-83
2022/11/20 08:04:17;;;;;;;14.23;9.93;;;7.60;99.90;;;;;;5095555;28;20047;-83
2022/11/20 08:06:43;;;;;;;14.02;9.68;;;7.70;99.90;;;;;;5094235;28;20027;-82
2022/11/20 08:09:09;;;;;;;14.10;9.18;;;7.70;99.90;;;;;;5093440;28;20036;-83
2022/11/20 08:14:19;;;;;;;10.27;8.13;;;8.40;99.90;;;;;;5088249;28;20051;-83
2022/11/20 08:16:47;;;;;;;10.90;8.23;;;9.00;99.90;;;;;;5076543;28;20392;-84
2022/11/20 08:19:14;;;;;;;10.82;8.35;;;9.80;99.90;;;;;;5075618;28;20025;-87
2022/11/20 08:21:40;;;;;;;9.73;8.15;;;9.90;99.90;;;;;;5091118;28;20024;-82
2022/11/20 08:24:06;;;;;;;12.32;8.48;;;9.90;99.90;;;;;;5081446;28;20479;-79
2022/11/20 08:26:32;;;;;;;12.20;7.57;;;10.30;99.90;;;;;;5086533;28;20072;-78
2022/11/20 08:28:58;;;;;;;8.48;7.40;;;10.20;99.90;;;;;;5084357;28;20123;-78
2022/11/20 08:31:26;;;;;;;10.27;6.85;;;9.80;99.90;;;;;;5081520;28;20024;-78
2022/11/20 08:33:52;;;;;;;10.38;7.43;;;10.20;99.90;;;;;;5092972;28;20369;-79
2022/11/20 08:36:18;;;;;;;7.85;6.53;;;12.40;99.90;;;;;;5095144;28;20044;-79
2022/11/20 08:38:51;;;;;;;9.02;6.38;;;13.70;99.90;;;;;;5093617;28;20044;-81
2022/11/20 08:41:23;;;;;;;9.73;6.63;;;17.10;99.90;;;;;;5076935;28;20365;-83
2022/11/20 08:43:50;;;;;;;9.45;6.22;;;21.00;99.90;;;;;;5094495;28;20024;-84
2022/11/20 08:46:16;;;;;;;8.88;7.13;;;22.30;99.90;;;;;;5094843;28;20119;-89
2022/11/20 08:48:42;;;;;;;10.07;5.50;;;23.50;99.90;;;;;;5094186;28;20036;-84
2022/11/20 08:51:07;;;;;;;8.60;6.28;;;24.10;99.90;;;;;;5093860;28;20483;-85
2022/11/20 08:53:33;;;;;;;8.13;6.00;;;24.30;99.90;;;;;;5095459;28;20430;-85
2022/11/20 08:55:59;;;;;;;10.45;6.68;;;24.80;99.90;;;;;;5093578;28;20039;-85
2022/11/20 08:58:25;;;;;;;7.93;6.55;;;25.40;99.90;;;;;;5095497;28;20058;-85
2022/11/20 09:00:51;;;;;;;8.40;6.45;;;25.10;99.90;;;;;;5080157;28;20024;-85
2022/11/20 09:03:16;;;;;;;6.47;5.70;;;25.50;99.90;;;;;;5075107;28;20032;-85
2022/11/20 09:05:42;;;;;;;6.32;5.72;;;24.90;99.90;;;;;;5075908;28;20037;-85
2022/11/20 09:08:08;;;;;;;6.30;5.70;;;25.50;99.90;;;;;;5074628;28;20032;-85
2022/11/20 09:10:34;;;;;;;6.75;5.82;;;25.20;99.90;;;;;;5075894;28;20028;-85
2022/11/20 09:13:01;;;;;;;7.03;5.90;;;26.90;99.90;;;;;;5075142;28;20029;-85
2022/11/20 09:15:27;;;;;;;6.80;5.45;;;27.00;99.90;;;;;;5075677;28;20554;-84
2022/11/20 09:18:02;;;;;;;7.88;5.32;;;27.30;99.90;;;;;;5083843;28;20476;-85
2022/11/20 09:20:29;;;;;;;6.07;4.47;;;23.30;99.90;;;;;;5084908;28;20074;-85
2022/11/20 09:22:56;;;;;;;8.02;5.00;;;20.70;99.90;;;;;;5074589;28;20024;-85
2022/11/20 09:25:21;;;;;;;6.38;4.93;;;18.30;99.90;;;;;;5083845;28;20027;-85
2022/11/20 09:27:47;;;;;;;7.57;4.82;;;16.70;99.90;;;;;;5095150;28;20547;-85
2022/11/20 09:30:14;;;;;;;6.05;4.93;;;15.10;99.90;;;;;;5092734;28;20028;-85
2022/11/20 09:32:40;;;;;;;6.88;5.18;;;14.20;99.90;;;;;;5094772;28;20016;-84
2022/11/20 09:35:06;;;;;;;8.10;6.00;;;14.70;99.90;;;;;;5089160;28;20504;-85
2022/11/20 09:37:32;;;;;;;6.38;4.93;;;16.90;99.90;;;;;;5093925;28;20032;-84
2022/11/20 09:39:57;;;;;;;13.52;9.63;;;17.10;99.90;;;;;;5087064;28;20033;-84
2022/11/20 09:42:36;;;;;;;9.20;5.90;;;15.90;99.90;;;;;;5074704;28;20078;-84
2022/11/20 09:45:02;;;;;;;6.22;5.35;;;14.80;99.90;;;;;;5076171;28;20502;-85
2022/11/20 09:48:19;;;;;;;10.35;8.43;;;14.10;99.90;;;;;;5081092;28;20024;-87
2022/11/20 09:51:12;;;;;;;7.07;5.65;;;13.40;99.90;;;;;;5012297;28;20048;-87
2022/11/20 09:53:53;;;;;;;10.80;7.13;;;12.70;99.90;;;;;;5013264;28;20042;-90
2022/11/20 09:56:21;;;;;;;7.80;6.20;;;12.40;99.90;;;;;;5030830;28;20096;-80
2022/11/20 09:58:51;;;;;;;6.72;5.13;;;12.50;99.90;;;;;;5051466;28;20048;-81
2022/11/20 10:01:19;;;;;;;7.20;5.65;;;16.00;99.90;;;;;;5036996;28;20044;-83
2022/11/20 10:04:04;;;;;;;5.68;4.18;;;16.80;99.90;;;;;;5051178;28;20029;-81
2022/11/20 10:06:41;;;;;;;5.18;3.58;;;17.00;99.90;;;;;;5050573;28;20033;-81
2022/11/20 10:09:21;;;;;;;5.30;3.53;;;16.80;99.90;;;;;;5051349;28;20494;-81
2022/11/20 10:12:09;;;;;;;5.35;3.00;;;16.30;99.90;;;;;;5051110;28;20033;-82
2022/11/20 10:14:59;;;;;;;4.70;3.60;;;14.20;99.90;;;;;;5043439;28;20032;-81
2022/11/20 10:18:02;;;;;;;5.72;3.00;;;13.30;99.90;;;;;;5021504;28;20049;-81
2022/11/20 10:20:45;;;;;;;3.60;2.50;;;12.50;99.90;;;;;;5014693;28;20125;-87
2022/11/20 10:23:28;;;;;;;5.13;3.03;;;12.40;99.90;;;;;;5021177;28;20712;-88
2022/11/20 10:26:03;;;;;;;5.57;3.10;;;12.70;99.90;;;;;;5091842;28;20574;-88
2022/11/20 10:29:07;;;;;;;5.18;2.78;;;12.90;99.90;;;;;;5094188;28;20039;-88
2022/11/20 10:31:34;;;;;;;4.03;2.47;;;15.40;99.90;;;;;;5093806;28;20021;-88
2022/11/20 10:34:33;;;;;;;3.75;2.50;;;20.30;99.90;;;;;;5091312;28;20443;-89
2022/11/20 10:37:05;;;;;;;5.07;2.55;;;16.00;99.90;;;;;;5084201;28;20098;-89
2022/11/20 10:39:35;;;;;;;4.22;2.60;;;16.00;99.90;;;;;;5089548;28;20020;-89
2022/11/20 10:42:01;;;;;;;4.22;2.65;;;23.90;99.90;;;;;;5090554;28;20070;-89
2022/11/20 10:47:17;;;;;;;3.83;2.30;;;23.10;99.90;;;;;;5090751;28;20051;-89
2022/11/20 10:49:46;;;;;;;3.58;2.10;;;22.50;99.90;;;;;;5088782;28;20036;-89
2022/11/20 10:52:21;;;;;;;3.35;2.20;;;19.20;99.90;;;;;;5090281;28;20047;-89
2022/11/20 10:55:11;;;;;;;4.43;3.00;;;24.30;99.90;;;;;;5090443;28;20035;-89
2022/11/20 10:58:09;;;;;;;4.75;2.33;;;28.00;99.90;;;;;;5090207;28;20028;-90
2022/11/20 11:00:34;;;;;;;3.60;2.30;;;27.30;99.90;;;;;;5086782;28;20051;-89
2022/11/20 11:03:02;;;;;;;4.15;2.17;;;29.20;99.90;;;;;;5089898;28;20025;-89
2022/11/20 11:05:51;;;;;;;3.97;2.30;;;29.30;99.90;;;;;;5089733;28;20055;-89
2022/11/20 11:08:19;;;;;;;5.88;3.42;;;21.30;99.90;;;;;;5089115;28;20453;-89
2022/11/20 11:10:56;;;;;;;5.38;2.55;;;18.30;99.90;;;;;;5090010;28;20028;-89
2022/11/20 11:13:26;;;;;;;5.18;2.30;;;16.20;99.90;;;;;;5089633;28;20035;-89
2022/11/20 11:15:52;;;;;;;4.43;2.28;;;22.80;99.90;;;;;;5089994;28;20051;-89
2022/11/20 11:18:24;;;;;;;4.20;2.70;;;26.60;99.90;;;;;;5076861;28;20025;-89
2022/11/20 11:20:51;;;;;;;3.35;2.33;;;28.10;99.90;;;;;;5069637;28;20053;-89
2022/11/20 11:23:32;;;;;;;3.85;2.58;;;24.40;99.90;;;;;;5068312;28;20025;-89
2022/11/20 11:25:59;;;;;;;4.18;2.45;;;21.40;99.90;;;;;;5069369;28;20024;-89
2022/11/20 11:28:27;;;;;;;3.88;2.60;;;24.20;99.90;;;;;;5069254;28;20021;-88
2022/11/20 11:30:54;;;;;;;4.82;2.85;;;23.20;99.90;;;;;;5070706;28;20028;-90
2022/11/20 11:33:38;;;;;;;3.05;2.45;;;26.30;99.90;;;;;;5080669;28;20514;-89
2022/11/20 11:36:19;;;;;;;2.85;2.33;;;28.70;99.90;;;;;;5089472;28;20055;-89
2022/11/20 11:38:45;;;;;;;3.50;2.40;;;28.90;99.90;;;;;;5089509;28;20507;-90
2022/11/20 11:41:18;;;;;;;4.28;2.55;;;31.10;99.90;;;;;;5089216;28;20017;-89
2022/11/20 11:46:50;;;;;;;3.78;2.30;;;32.00;99.90;;;;;;5075540;28;20062;-90
2022/11/20 11:49:20;;;;;;;2.55;2.03;;;31.10;99.90;;;;;;5076185;28;20058;-90
2022/11/20 11:52:14;;;;;;;3.58;2.20;;;31.20;99.90;;;;;;5075471;28;20027;-90
2022/11/20 11:54:49;;;;;;;3.25;2.53;;;31.30;99.90;;;;;;5074205;28;20583;-90
2022/11/20 11:57:37;;;;;;;3.22;2.60;;;31.10;99.90;;;;;;5075777;28;20028;-90
2022/11/20 12:00:11;;;;;;;3.58;2.35;;;31.30;99.90;;;;;;5075504;28;20055;-90
2022/11/20 12:02:46;;;;;;;3.42;2.75;;;31.50;99.90;;;;;;5075201;28;20385;-89
2022/11/20 12:05:25;;;;;;;3.13;2.20;;;31.70;99.90;;;;;;5075353;28;20028;-90
2022/11/20 12:08:00;;;;;;;4.75;2.17;;;31.10;99.90;;;;;;5075580;28;20052;-90
2022/11/20 12:10:52;;;;;;;2.63;2.10;;;30.10;99.90;;;;;;5075110;28;20024;-91
2022/11/20 12:13:21;;;;;;;2.65;2.00;;;28.50;99.90;;;;;;5074157;28;20185;-90
2022/11/20 12:15:48;;;;;;;2.90;1.95;;;31.10;99.90;;;;;;5075220;28;20043;-90
2022/11/20 12:18:19;;;;;;;1.75;1.60;;;31.10;99.90;;;;;;5063355;28;20033;-90
2022/11/20 12:21:12;;;;;;;3.33;1.88;;;26.70;99.90;;;;;;5055130;28;20013;-90
2022/11/20 12:24:02;;;;;;;3.22;2.45;;;23.20;99.90;;;;;;5055100;28;20025;-90
2022/11/20 12:26:31;;;;;;;3.25;2.38;;;20.90;99.90;;;;;;5053701;28;20500;-89
2022/11/20 12:29:11;;;;;;;4.47;2.88;;;19.30;99.90;;;;;;5055158;28;20021;-89
2022/11/20 12:31:55;;;;;;;3.40;2.95;;;18.80;99.90;;;;;;5056185;28;20033;-89
2022/11/20 12:34:43;;;;;;;4.43;3.10;;;18.70;99.90;;;;;;5033835;28;20048;-89
2022/11/20 12:37:30;;;;;;;3.70;2.00;;;21.70;99.90;;;;;;5035290;28;20033;-89
2022/11/20 12:40:01;;;;;;;2.40;1.90;;;24.20;99.90;;;;;;5034296;28;20041;-89
2022/11/20 12:45:28;;;;;;;3.00;1.63;;;27.40;99.90;;;;;;5034701;28;20087;-90
2022/11/20 12:48:06;;;;;;;2.42;1.67;;;27.10;99.90;;;;;;5035434;28;20041;-89
2022/11/20 12:51:10;;;;;;;3.38;2.00;;;24.50;99.90;;;;;;5034793;28;20025;-90
2022/11/20 12:54:24;;;;;;;2.60;1.90;;;22.50;99.90;;;;;;5035048;28;20461;-90
2022/11/20 12:57:09;;;;;;;3.78;2.03;;;19.90;99.90;;;;;;5034782;28;20026;-89
2022/11/20 12:59:58;;;;;;;4.15;3.75;;;19.30;99.90;;;;;;5034591;28;20053;-89
2022/11/20 13:02:40;;;;;;;3.30;2.88;;;18.50;99.90;;;;;;4993238;28;20030;-89
2022/11/20 13:05:31;;;;;;;4.53;2.47;;;19.00;99.90;;;;;;4977652;28;20154;-89
2022/11/20 13:07:57;;;;;;;1.80;1.33;;;18.10;99.90;;;;;;4977122;28;20035;-89
2022/11/20 13:10:37;;;;;;;1.98;0.93;;;17.30;99.90;;;;;;4976906;28;20034;-89
2022/11/20 13:13:21;;;;;;;1.85;1.38;;;16.50;99.90;;;;;;4993069;28;20669;-89